sensor_id;sensor_type;location;lat;lon;timestamp;pressure;altitude;pressure_sealevel;temperature;humidity
58473;BME280;44775;51.564;5.460;2024-02-15T00:01:03;101411.75;;;11.19;100.00
58473;BME280;44775;51.564;5.460;2024-02-15T00:03:29;101403.50;;;11.12;100.00
58473;BME280;44775;51.564;5.460;2024-02-15T00:05:54;101398.84;;;11.14;100.00
58473;BME280;44775;51.564;5.460;2024-02-15T00:08:19;101397.16;;;11.13;100.00
58473;BME280;44775;51.564;5.460;2024-02-15T00:10:46;101397.06;;;11.23;100.00
58473;BME280;44775;51.564;5.460;2024-02-15T00:13:11;101396.31;;;11.13;100.00
58473;BME280;44775;51.564;5.460;2024-02-15T00:15:36;101390.84;;;11.14;100.00
58473;BME280;44775;51.564;5.460;2024-02-15T00:18:02;101391.88;;;11.21;100.00
58473;BME280;44775;51.564;5.460;2024-02-15T00:20:28;101391.16;;;11.11;100.00
58473;BME280;44775;51.564;5.460;2024-02-15T00:22:53;101387.28;;;11.14;100.00
58473;BME280;44775;51.564;5.460;2024-02-15T00:25:20;101385.31;;;11.16;100.00
58473;BME280;44775;51.564;5.460;2024-02-15T00:27:46;101383.66;;;11.15;100.00
58473;BME280;44775;51.564;5.460;2024-02-15T00:30:11;101382.81;;;11.14;100.00
58473;BME280;44775;51.564;5.460;2024-02-15T00:32:36;101378.63;;;11.20;100.00
58473;BME280;44775;51.564;5.460;2024-02-15T00:35:02;101371.91;;;11.07;100.00
58473;BME280;44775;51.564;5.460;2024-02-15T00:37:27;101389.13;;;11.13;100.00
58473;BME280;44775;51.564;5.460;2024-02-15T00:39:52;101380.59;;;11.09;100.00
58473;BME280;44775;51.564;5.460;2024-02-15T00:42:17;101386.31;;;11.15;100.00
58473;BME280;44775;51.564;5.460;2024-02-15T00:44:44;101383.13;;;11.11;100.00
58473;BME280;44775;51.564;5.460;2024-02-15T00:47:09;101379.81;;;11.17;100.00
58473;BME280;44775;51.564;5.460;2024-02-15T00:49:35;101387.47;;;11.12;100.00
58473;BME280;44775;51.564;5.460;2024-02-15T00:52:01;101386.31;;;11.15;100.00
58473;BME280;44775;51.564;5.460;2024-02-15T00:54:26;101383.66;;;11.15;100.00
58473;BME280;44775;51.564;5.460;2024-02-15T00:56:51;101387.63;;;11.10;100.00
58473;BME280;44775;51.564;5.460;2024-02-15T00:59:16;101386.16;;;11.16;100.00
58473;BME280;44775;51.564;5.460;2024-02-15T01:01:41;101384.69;;;11.22;100.00
58473;BME280;44775;51.564;5.460;2024-02-15T01:04:07;101383.97;;;11.11;100.00
58473;BME280;44775;51.564;5.460;2024-02-15T01:06:32;101388.88;;;11.24;100.00
58473;BME280;44775;51.564;5.460;2024-02-15T01:08:57;101388.19;;;11.22;100.00
58473;BME280;44775;51.564;5.460;2024-02-15T01:11:23;101386.66;;;11.20;100.00
58473;BME280;44775;51.564;5.460;2024-02-15T01:13:49;101378.28;;;11.15;100.00
58473;BME280;44775;51.564;5.460;2024-02-15T01:16:14;101383.66;;;11.15;100.00
58473;BME280;44775;51.564;5.460;2024-02-15T01:18:40;101372.94;;;11.15;100.00
58473;BME280;44775;51.564;5.460;2024-02-15T01:21:05;101376.47;;;11.23;100.00
58473;BME280;44775;51.564;5.460;2024-02-15T01:23:31;101363.69;;;11.43;100.00
58473;BME280;44775;51.564;5.460;2024-02-15T01:25:56;101361.63;;;11.21;100.00
58473;BME280;44775;51.564;5.460;2024-02-15T01:28:22;101364.44;;;11.19;100.00
58473;BME280;44775;51.564;5.460;2024-02-15T01:30:48;101366.47;;;11.25;100.00
58473;BME280;44775;51.564;5.460;2024-02-15T01:33:13;101363.28;;;11.22;100.00
58473;BME280;44775;51.564;5.460;2024-02-15T01:35:38;101364.94;;;11.23;100.00
58473;BME280;44775;51.564;5.460;2024-02-15T01:38:04;101374.13;;;11.20;100.00
58473;BME280;44775;51.564;5.460;2024-02-15T01:40:30;101366.75;;;11.14;100.00
58473;BME280;44775;51.564;5.460;2024-02-15T01:42:55;101358.13;;;11.28;100.00
58473;BME280;44775;51.564;5.460;2024-02-15T01:45:20;101351.56;;;11.23;100.00
58473;BME280;44775;51.564;5.460;2024-02-15T01:47:46;101367.09;;;11.19;100.00
58473;BME280;44775;51.564;5.460;2024-02-15T01:50:12;101357.22;;;11.11;100.00
58473;BME280;44775;51.564;5.460;2024-02-15T01:52:38;101354.88;;;11.17;100.00
58473;BME280;44775;51.564;5.460;2024-02-15T01:55:04;101349.41;;;11.26;100.00
58473;BME280;44775;51.564;5.460;2024-02-15T01:57:33;101339.84;;;11.16;100.00
58473;BME280;44775;51.564;5.460;2024-02-15T01:59:58;101345.56;;;11.21;100.00
58473;BME280;44775;51.564;5.460;2024-02-15T02:02:24;101337.16;;;11.16;100.00
58473;BME280;44775;51.564;5.460;2024-02-15T02:04:50;101332.53;;;11.26;100.00
58473;BME280;44775;51.564;5.460;2024-02-15T02:07:16;101339.19;;;11.22;100.00
58473;BME280;44775;51.564;5.460;2024-02-15T02:09:41;101330.47;;;11.11;100.00
58473;BME280;44775;51.564;5.460;2024-02-15T02:12:06;101326.16;;;11.19;100.00
58473;BME280;44775;51.564;5.460;2024-02-15T02:14:32;101334.19;;;11.27;100.00
58473;BME280;44775;51.564;5.460;2024-02-15T02:17:10;101328.31;;;11.15;100.00
58473;BME280;44775;51.564;5.460;2024-02-15T02:19:35;101323.66;;;11.17;100.00
58473;BME280;44775;51.564;5.460;2024-02-15T02:22:03;101321.44;;;11.13;100.00
58473;BME280;44775;51.564;5.460;2024-02-15T02:24:30;101318.75;;;11.13;100.00
58473;BME280;44775;51.564;5.460;2024-02-15T02:26:57;101323.84;;;11.24;100.00
58473;BME280;44775;51.564;5.460;2024-02-15T02:29:22;101326.16;;;11.19;100.00
58473;BME280;44775;51.564;5.460;2024-02-15T02:31:47;101318.75;;;11.13;100.00
58473;BME280;44775;51.564;5.460;2024-02-15T02:34:13;101319.06;;;11.09;100.00
58473;BME280;44775;51.564;5.460;2024-02-15T02:36:39;101322.44;;;11.11;100.00
58473;BME280;44775;51.564;5.460;2024-02-15T02:39:08;101314.22;;;11.05;100.00
58473;BME280;44775;51.564;5.460;2024-02-15T02:41:33;101314.25;;;11.13;100.00
58473;BME280;44775;51.564;5.460;2024-02-15T02:43:58;101314.22;;;11.05;100.00
58473;BME280;44775;51.564;5.460;2024-02-15T02:46:24;101319.69;;;10.95;100.00
58473;BME280;44775;51.564;5.460;2024-02-15T02:48:49;101311.16;;;11.00;100.00
58473;BME280;44775;51.564;5.460;2024-02-15T02:51:14;101318.00;;;10.94;100.00
58473;BME280;44775;51.564;5.460;2024-02-15T02:53:40;101324.72;;;10.98;100.00
58473;BME280;44775;51.564;5.460;2024-02-15T02:56:05;101320.19;;;10.99;100.00
58473;BME280;44775;51.564;5.460;2024-02-15T02:58:33;101307.84;;;10.98;100.00
58473;BME280;44775;51.564;5.460;2024-02-15T03:00:58;101311.34;;;10.98;100.00
58473;BME280;44775;51.564;5.460;2024-02-15T03:03:25;101313.22;;;11.06;100.00
58473;BME280;44775;51.564;5.460;2024-02-15T03:05:50;101298.97;;;10.97;100.00
58473;BME280;44775;51.564;5.460;2024-02-15T03:08:15;101301.84;;;11.04;100.00
58473;BME280;44775;51.564;5.460;2024-02-15T03:10:42;101302.69;;;11.04;100.00
58473;BME280;44775;51.564;5.460;2024-02-15T03:13:07;101302.38;;;11.07;100.00
58473;BME280;44775;51.564;5.460;2024-02-15T03:15:34;101296.84;;;11.09;100.00
58473;BME280;44775;51.564;5.460;2024-02-15T03:17:59;101294.66;;;11.04;100.00
58473;BME280;44775;51.564;5.460;2024-02-15T03:20:24;101302.56;;;11.14;100.00
58473;BME280;44775;51.564;5.460;2024-02-15T03:22:53;101298.00;;;11.06;100.00
58473;BME280;44775;51.564;5.460;2024-02-15T03:25:18;101296.00;;;11.00;100.00
58473;BME280;44775;51.564;5.460;2024-02-15T03:27:43;101292.31;;;11.01;100.00
58473;BME280;44775;51.564;5.460;2024-02-15T03:30:09;101298.31;;;11.03;100.00
58473;BME280;44775;51.564;5.460;2024-02-15T03:32:35;101293.34;;;11.08;100.00
58473;BME280;44775;51.564;5.460;2024-02-15T03:35:00;101296.00;;;11.00;100.00
58473;BME280;44775;51.564;5.460;2024-02-15T03:37:26;101296.34;;;11.14;100.00
58473;BME280;44775;51.564;5.460;2024-02-15T03:39:51;101291.16;;;11.04;100.00
58473;BME280;44775;51.564;5.460;2024-02-15T03:42:16;101292.00;;;11.04;100.00
58473;BME280;44775;51.564;5.460;2024-02-15T03:44:41;101293.84;;;11.12;100.00
58473;BME280;44775;51.564;5.460;2024-02-15T03:47:07;101295.63;;;11.03;100.00
58473;BME280;44775;51.564;5.460;2024-02-15T03:49:32;101290.16;;;11.05;100.00
58473;BME280;44775;51.564;5.460;2024-02-15T03:51:57;101290.97;;;10.97;100.00
58473;BME280;44775;51.564;5.460;2024-02-15T03:54:24;101289.13;;;10.98;100.00
58473;BME280;44775;51.564;5.460;2024-02-15T03:56:50;101284.59;;;10.98;100.00
58473;BME280;44775;51.564;5.460;2024-02-15T03:59:18;101290.44;;;10.94;100.00
58473;BME280;44775;51.564;5.460;2024-02-15T04:01:46;101282.75;;;10.99;100.00
58473;BME280;44775;51.564;5.460;2024-02-15T04:04:12;101279.94;;;11.00;100.00
58473;BME280;44775;51.564;5.460;2024-02-15T04:06:38;101292.13;;;11.03;100.00
58473;BME280;44775;51.564;5.460;2024-02-15T04:09:03;101295.81;;;11.02;100.00
58473;BME280;44775;51.564;5.460;2024-02-15T04:11:29;101290.97;;;10.97;100.00
58473;BME280;44775;51.564;5.460;2024-02-15T04:13:54;101294.81;;;11.03;100.00
58473;BME280;44775;51.564;5.460;2024-02-15T04:16:22;101295.44;;;10.97;100.00
58473;BME280;44775;51.564;5.460;2024-02-15T04:18:47;101298.16;;;11.05;100.00
58473;BME280;44775;51.564;5.460;2024-02-15T04:21:12;101299.69;;;11.07;100.00
58473;BME280;44775;51.564;5.460;2024-02-15T04:23:38;101293.66;;;11.05;100.00
58473;BME280;44775;51.564;5.460;2024-02-15T04:26:04;101285.13;;;11.02;100.00
58473;BME280;44775;51.564;5.460;2024-02-15T04:28:29;101280.78;;;11.01;100.00
58473;BME280;44775;51.564;5.460;2024-02-15T04:30:54;101279.97;;;11.08;100.00
58473;BME280;44775;51.564;5.460;2024-02-15T04:33:20;101276.41;;;11.00;100.00
58473;BME280;44775;51.564;5.460;2024-02-15T04:35:45;101274.59;;;11.00;100.00
58473;BME280;44775;51.564;5.460;2024-02-15T04:38:11;101272.91;;;10.99;100.00
58473;BME280;44775;51.564;5.460;2024-02-15T04:40:36;101275.44;;;11.01;100.00
58473;BME280;44775;51.564;5.460;2024-02-15T04:43:04;101274.03;;;10.97;100.00
58473;BME280;44775;51.564;5.460;2024-02-15T04:45:29;101272.75;;;11.01;100.00
58473;BME280;44775;51.564;5.460;2024-02-15T04:47:55;101274.59;;;11.00;100.00
58473;BME280;44775;51.564;5.460;2024-02-15T04:50:22;101270.22;;;10.99;100.00
58473;BME280;44775;51.564;5.460;2024-02-15T04:52:47;101265.72;;;11.00;100.00
58473;BME280;44775;51.564;5.460;2024-02-15T04:55:14;101255.56;;;11.11;100.00
58473;BME280;44775;51.564;5.460;2024-02-15T04:57:40;101250.53;;;11.00;100.00
58473;BME280;44775;51.564;5.460;2024-02-15T05:00:06;101250.38;;;11.10;100.00
58473;BME280;44775;51.564;5.460;2024-02-15T05:02:35;101249.97;;;10.97;100.00
58473;BME280;44775;51.564;5.460;2024-02-15T05:05:05;101258.88;;;10.97;100.00
58473;BME280;44775;51.564;5.460;2024-02-15T05:07:32;101252.66;;;10.97;100.00
58473;BME280;44775;51.564;5.460;2024-02-15T05:09:58;101255.50;;;10.95;100.00
58473;BME280;44775;51.564;5.460;2024-02-15T05:12:23;101254.66;;;10.95;100.00
58473;BME280;44775;51.564;5.460;2024-02-15T05:14:49;101258.88;;;10.97;100.00
58473;BME280;44775;51.564;5.460;2024-02-15T05:17:15;101261.38;;;10.99;100.00
58473;BME280;44775;51.564;5.460;2024-02-15T05:19:40;101267.91;;;11.04;100.00
58473;BME280;44775;51.564;5.460;2024-02-15T05:22:05;101269.91;;;11.02;100.00
58473;BME280;44775;51.564;5.460;2024-02-15T05:24:31;101271.25;;;11.06;100.00
58473;BME280;44775;51.564;5.460;2024-02-15T05:26:57;101274.41;;;11.02;100.00
58473;BME280;44775;51.564;5.460;2024-02-15T05:29:22;101272.44;;;11.04;100.00
58473;BME280;44775;51.564;5.460;2024-02-15T05:31:48;101272.59;;;11.02;100.00
58473;BME280;44775;51.564;5.460;2024-02-15T05:34:16;101282.00;;;11.23;100.00
58473;BME280;44775;51.564;5.460;2024-02-15T05:36:41;101285.00;;;11.11;100.00
58473;BME280;44775;51.564;5.460;2024-02-15T05:39:06;101276.97;;;11.11;100.00
58473;BME280;44775;51.564;5.460;2024-02-15T05:41:32;101277.63;;;11.14;100.00
58473;BME280;44775;51.564;5.460;2024-02-15T05:43:58;101279.28;;;11.06;100.00
58473;BME280;44775;51.564;5.460;2024-02-15T05:46:23;101274.94;;;11.14;100.00
58473;BME280;44775;51.564;5.460;2024-02-15T05:48:48;101265.94;;;11.15;100.00
58473;BME280;44775;51.564;5.460;2024-02-15T05:51:14;101265.94;;;11.15;100.00
58473;BME280;44775;51.564;5.460;2024-02-15T05:53:40;101245.50;;;11.05;100.00
58473;BME280;44775;51.564;5.460;2024-02-15T05:56:06;101249.03;;;11.06;100.00
58473;BME280;44775;51.564;5.460;2024-02-15T05:58:32;101245.00;;;11.02;100.00
58473;BME280;44775;51.564;5.460;2024-02-15T06:01:01;101249.84;;;10.98;100.00
58473;BME280;44775;51.564;5.460;2024-02-15T06:03:29;101257.53;;;11.01;100.00
58473;BME280;44775;51.564;5.460;2024-02-15T06:05:56;101248.19;;;11.05;100.00
58473;BME280;44775;51.564;5.460;2024-02-15T06:08:26;101238.97;;;11.00;100.00
58473;BME280;44775;51.564;5.460;2024-02-15T06:10:51;101231.81;;;11.00;100.00
58473;BME280;44775;51.564;5.460;2024-02-15T06:13:17;101217.06;;;10.96;100.00
58473;BME280;44775;51.564;5.460;2024-02-15T06:15:42;101192.34;;;10.94;100.00
58473;BME280;44775;51.564;5.460;2024-02-15T06:18:08;101197.84;;;10.93;100.00
58473;BME280;44775;51.564;5.460;2024-02-15T06:20:35;101196.03;;;11.01;100.00
58473;BME280;44775;51.564;5.460;2024-02-15T06:23:00;101201.06;;;11.04;100.00
58473;BME280;44775;51.564;5.460;2024-02-15T06:25:28;101199.72;;;11.00;100.00
58473;BME280;44775;51.564;5.460;2024-02-15T06:27:53;101189.03;;;11.00;100.00
58473;BME280;44775;51.564;5.460;2024-02-15T06:30:24;101197.38;;;10.97;100.00
58473;BME280;44775;51.564;5.460;2024-02-15T06:33:08;101194.19;;;10.94;100.00
58473;BME280;44775;51.564;5.460;2024-02-15T06:35:52;101205.72;;;10.94;100.00
58473;BME280;44775;51.564;5.460;2024-02-15T06:38:36;101194.19;;;10.94;100.00
58473;BME280;44775;51.564;5.460;2024-02-15T06:41:20;101196.00;;;10.93;100.00
58473;BME280;44775;51.564;5.460;2024-02-15T06:43:45;101204.91;;;11.10;100.00
58473;BME280;44775;51.564;5.460;2024-02-15T06:46:10;101215.22;;;10.97;100.00
58473;BME280;44775;51.564;5.460;2024-02-15T06:48:36;101213.72;;;10.94;100.00
58473;BME280;44775;51.564;5.460;2024-02-15T06:51:01;101222.59;;;10.95;100.00
58473;BME280;44775;51.564;5.460;2024-02-15T06:53:28;101222.78;;;11.01;100.00
58473;BME280;44775;51.564;5.460;2024-02-15T06:55:53;101226.78;;;10.97;100.00
58473;BME280;44775;51.564;5.460;2024-02-15T06:58:18;101234.81;;;10.97;100.00
58473;BME280;44775;51.564;5.460;2024-02-15T07:00:45;101228.63;;;11.05;100.00
58473;BME280;44775;51.564;5.460;2024-02-15T07:03:10;101237.81;;;11.02;100.00
58473;BME280;44775;51.564;5.460;2024-02-15T07:05:38;101239.47;;;11.03;100.00
58473;BME280;44775;51.564;5.460;2024-02-15T07:08:04;101233.28;;;11.03;100.00
58473;BME280;44775;51.564;5.460;2024-02-15T07:10:30;101228.31;;;11.08;100.00
58473;BME280;44775;51.564;5.460;2024-02-15T07:12:56;101236.47;;;11.06;100.00
58473;BME280;44775;51.564;5.460;2024-02-15T07:15:21;101217.28;;;11.11;100.00
58473;BME280;44775;51.564;5.460;2024-02-15T07:17:46;101221.47;;;11.14;100.00
58473;BME280;44775;51.564;5.460;2024-02-15T07:20:13;101215.28;;;11.13;100.00
58473;BME280;44775;51.564;5.460;2024-02-15T07:22:42;101211.63;;;11.14;100.00
58473;BME280;44775;51.564;5.460;2024-02-15T07:25:07;101211.75;;;11.13;100.00
58473;BME280;44775;51.564;5.460;2024-02-15T07:27:33;101210.75;;;11.14;100.00
58473;BME280;44775;51.564;5.460;2024-02-15T07:30:00;101213.63;;;11.20;100.00
58473;BME280;44775;51.564;5.460;2024-02-15T07:32:25;101219.16;;;11.19;100.00
58473;BME280;44775;51.564;5.460;2024-02-15T07:34:51;101220.63;;;11.13;100.00
58473;BME280;44775;51.564;5.460;2024-02-15T07:37:17;101222.31;;;11.14;100.00
58473;BME280;44775;51.564;5.460;2024-02-15T07:39:42;101225.66;;;11.16;100.00
58473;BME280;44775;51.564;5.460;2024-02-15T07:42:07;101226.81;;;11.14;100.00
58473;BME280;44775;51.564;5.460;2024-02-15T07:44:33;101217.81;;;11.15;100.00
58473;BME280;44775;51.564;5.460;2024-02-15T07:47:01;101218.13;;;11.20;100.00
58473;BME280;44775;51.564;5.460;2024-02-15T07:49:26;101220.66;;;11.29;100.00
58473;BME280;44775;51.564;5.460;2024-02-15T07:51:51;101219.50;;;11.24;100.00
58473;BME280;44775;51.564;5.460;2024-02-15T07:54:21;101220.47;;;11.23;100.00
58473;BME280;44775;51.564;5.460;2024-02-15T07:56:48;101227.19;;;11.27;100.00
58473;BME280;44775;51.564;5.460;2024-02-15T07:59:14;101226.00;;;11.29;100.00
58473;BME280;44775;51.564;5.460;2024-02-15T08:01:41;101219.00;;;11.28;100.00
58473;BME280;44775;51.564;5.460;2024-02-15T08:04:07;101224.34;;;11.28;100.00
58473;BME280;44775;51.564;5.460;2024-02-15T08:06:33;101217.00;;;11.39;100.00
58473;BME280;44775;51.564;5.460;2024-02-15T08:08:58;101212.66;;;11.38;100.00
58473;BME280;44775;51.564;5.460;2024-02-15T08:11:23;101207.81;;;11.41;100.00
58473;BME280;44775;51.564;5.460;2024-02-15T08:13:51;101208.84;;;11.48;100.00
58473;BME280;44775;51.564;5.460;2024-02-15T08:16:20;101222.22;;;11.56;100.00
58473;BME280;44775;51.564;5.460;2024-02-15T08:18:47;101213.84;;;11.59;100.00
58473;BME280;44775;51.564;5.460;2024-02-15T08:21:13;101212.38;;;11.65;100.00
58473;BME280;44775;51.564;5.460;2024-02-15T08:23:39;101210.19;;;11.69;100.00
58473;BME280;44775;51.564;5.460;2024-02-15T08:26:04;101207.66;;;11.67;100.00
58473;BME280;44775;51.564;5.460;2024-02-15T08:28:30;101215.03;;;11.81;100.00
58473;BME280;44775;51.564;5.460;2024-02-15T08:30:55;101212.53;;;11.80;100.00
58473;BME280;44775;51.564;5.460;2024-02-15T08:33:24;101206.69;;;11.93;100.00
58473;BME280;44775;51.564;5.460;2024-02-15T08:35:49;101207.16;;;11.80;100.00
58473;BME280;44775;51.564;5.460;2024-02-15T08:38:14;101195.47;;;11.89;100.00
58473;BME280;44775;51.564;5.460;2024-02-15T08:40:39;101196.81;;;11.93;100.00
58473;BME280;44775;51.564;5.460;2024-02-15T08:43:05;101200.50;;;11.92;100.00
58473;BME280;44775;51.564;5.460;2024-02-15T08:45:31;101201.50;;;11.91;100.00
58473;BME280;44775;51.564;5.460;2024-02-15T08:47:56;101197.97;;;11.91;100.00
58473;BME280;44775;51.564;5.460;2024-02-15T08:50:21;101184.72;;;11.81;100.00
58473;BME280;44775;51.564;5.460;2024-02-15T08:52:48;101184.44;;;11.92;100.00
58473;BME280;44775;51.564;5.460;2024-02-15T08:55:14;101193.47;;;11.99;100.00
58473;BME280;44775;51.564;5.460;2024-02-15T08:57:39;101192.13;;;12.03;100.00
58473;BME280;44775;51.564;5.460;2024-02-15T09:00:06;101197.81;;;12.00;100.00
58473;BME280;44775;51.564;5.460;2024-02-15T09:02:38;101198.16;;;12.05;100.00
58473;BME280;44775;51.564;5.460;2024-02-15T09:05:03;101197.97;;;12.07;100.00
58473;BME280;44775;51.564;5.460;2024-02-15T09:07:29;101192.63;;;12.15;100.00
58473;BME280;44775;51.564;5.460;2024-02-15T09:09:55;101198.28;;;12.20;100.00
58473;BME280;44775;51.564;5.460;2024-02-15T09:12:20;101197.97;;;12.15;100.00
58473;BME280;44775;51.564;5.460;2024-02-15T09:14:46;101192.94;;;12.12;100.00
58473;BME280;44775;51.564;5.460;2024-02-15T09:17:12;101197.09;;;12.15;100.00
58473;BME280;44775;51.564;5.460;2024-02-15T09:19:38;101195.09;;;12.17;100.00
58473;BME280;44775;51.564;5.460;2024-02-15T09:22:03;101193.78;;;12.13;100.00
58473;BME280;44775;51.564;5.460;2024-02-15T09:24:31;101197.44;;;12.20;100.00
58473;BME280;44775;51.564;5.460;2024-02-15T09:26:58;101190.72;;;12.24;100.00
58473;BME280;44775;51.564;5.460;2024-02-15T09:29:23;101192.06;;;12.28;100.00
58473;BME280;44775;51.564;5.460;2024-02-15T09:31:49;101198.44;;;12.35;100.00
58473;BME280;44775;51.564;5.460;2024-02-15T09:34:14;101190.84;;;12.47;100.00
58473;BME280;44775;51.564;5.460;2024-02-15T09:36:40;101184.25;;;12.58;100.00
58473;BME280;44775;51.564;5.460;2024-02-15T09:39:05;101178.91;;;12.58;100.00
58473;BME280;44775;51.564;5.460;2024-02-15T09:41:31;101190.16;;;12.53;100.00
58473;BME280;44775;51.564;5.460;2024-02-15T09:43:57;101191.97;;;12.61;100.00
58473;BME280;44775;51.564;5.460;2024-02-15T09:46:22;101186.25;;;12.64;100.00
58473;BME280;44775;51.564;5.460;2024-02-15T09:48:49;101190.81;;;12.55;100.00
58473;BME280;44775;51.564;5.460;2024-02-15T09:51:15;101200.47;;;12.72;100.00
58473;BME280;44775;51.564;5.460;2024-02-15T09:53:41;101196.09;;;12.71;100.00
58473;BME280;44775;51.564;5.460;2024-02-15T09:56:06;101194.72;;;12.84;100.00
58473;BME280;44775;51.564;5.460;2024-02-15T09:58:32;101184.41;;;13.04;100.00
58473;BME280;44775;51.564;5.460;2024-02-15T10:00:59;101191.00;;;12.93;100.00
58473;BME280;44775;51.564;5.460;2024-02-15T10:03:25;101187.44;;;12.92;100.00
58473;BME280;44775;51.564;5.460;2024-02-15T10:05:53;101194.31;;;12.95;100.00
58473;BME280;44775;51.564;5.460;2024-02-15T10:08:19;101195.19;;;12.87;100.00
58473;BME280;44775;51.564;5.460;2024-02-15T10:10:46;101188.94;;;13.03;100.00
58473;BME280;44775;51.564;5.460;2024-02-15T10:13:14;101194.66;;;12.92;100.00
58473;BME280;44775;51.564;5.460;2024-02-15T10:15:40;101191.81;;;12.93;100.00
58473;BME280;44775;51.564;5.460;2024-02-15T10:18:10;101190.00;;;12.86;100.00
58473;BME280;44775;51.564;5.460;2024-02-15T10:20:37;101200.72;;;12.86;100.00
58473;BME280;44775;51.564;5.460;2024-02-15T10:25:34;101189.56;;;12.74;100.00
58473;BME280;44775;51.564;5.460;2024-02-15T10:28:06;101196.94;;;12.72;100.00
58473;BME280;44775;51.564;5.460;2024-02-15T10:30:33;101180.13;;;12.86;100.00
58473;BME280;44775;51.564;5.460;2024-02-15T10:32:58;101191.81;;;12.93;100.00
58473;BME280;44775;51.564;5.460;2024-02-15T10:35:23;101189.31;;;12.92;100.00
58473;BME280;44775;51.564;5.460;2024-02-15T10:37:49;101197.84;;;12.95;100.00
58473;BME280;44775;51.564;5.460;2024-02-15T10:40:18;101198.31;;;12.99;100.00
58473;BME280;44775;51.564;5.460;2024-02-15T10:42:44;101200.16;;;12.98;100.00
58473;BME280;44775;51.564;5.460;2024-02-15T10:45:11;101187.56;;;13.07;100.00
58473;BME280;44775;51.564;5.460;2024-02-15T10:47:37;101187.97;;;13.27;100.00
58473;BME280;44775;51.564;5.460;2024-02-15T10:50:03;101189.94;;;13.33;100.00
58473;BME280;44775;51.564;5.460;2024-02-15T10:52:30;101194.69;;;13.46;100.00
58473;BME280;44775;51.564;5.460;2024-02-15T10:55:05;101188.97;;;13.49;100.00
58473;BME280;44775;51.564;5.460;2024-02-15T10:57:38;101190.78;;;13.57;100.00
58473;BME280;44775;51.564;5.460;2024-02-15T11:00:04;101194.34;;;13.72;100.00
58473;BME280;44775;51.564;5.460;2024-02-15T11:03:01;101188.50;;;13.68;100.00
58473;BME280;44775;51.564;5.460;2024-02-15T11:05:27;101189.91;;;13.79;100.00
58473;BME280;44775;51.564;5.460;2024-02-15T11:07:54;101188.72;;;13.82;100.00
58473;BME280;44775;51.564;5.460;2024-02-15T11:10:20;101179.03;;;13.96;100.00
58473;BME280;44775;51.564;5.460;2024-02-15T11:12:45;101181.13;;;13.85;100.00
58473;BME280;44775;51.564;5.460;2024-02-15T11:15:12;101173.66;;;13.96;100.00
58473;BME280;44775;51.564;5.460;2024-02-15T11:17:58;101172.34;;;13.91;100.00
58473;BME280;44775;51.564;5.460;2024-02-15T11:22:59;101173.59;;;14.18;100.00
58473;BME280;44775;51.564;5.460;2024-02-15T11:25:42;101168.19;;;14.33;100.00
58473;BME280;44775;51.564;5.460;2024-02-15T11:30:49;101171.91;;;14.47;100.00
58473;BME280;44775;51.564;5.460;2024-02-15T11:33:24;101170.72;;;14.50;100.00
58473;BME280;44775;51.564;5.460;2024-02-15T11:36:07;101171.75;;;14.49;100.00
58473;BME280;44775;51.564;5.460;2024-02-15T11:38:36;101159.28;;;14.48;100.00
58473;BME280;44775;51.564;5.460;2024-02-15T11:41:07;101160.31;;;14.76;100.00
58473;BME280;44775;51.564;5.460;2024-02-15T11:46:11;101150.38;;;14.77;100.00
58473;BME280;44775;51.564;5.460;2024-02-15T11:48:38;101153.09;;;14.77;100.00
58473;BME280;44775;51.564;5.460;2024-02-15T11:51:04;101148.44;;;14.85;100.00
58473;BME280;44775;51.564;5.460;2024-02-15T11:53:31;101138.97;;;14.90;100.00
58473;BME280;44775;51.564;5.460;2024-02-15T11:55:59;101140.69;;;14.97;100.00
58473;BME280;44775;51.564;5.460;2024-02-15T11:58:25;101136.41;;;15.03;100.00
58473;BME280;44775;51.564;5.460;2024-02-15T12:01:00;101137.56;;;15.15;100.00
58473;BME280;44775;51.564;5.460;2024-02-15T12:03:43;101134.63;;;15.31;100.00
58473;BME280;44775;51.564;5.460;2024-02-15T12:06:27;101126.28;;;15.48;100.00
58473;BME280;44775;51.564;5.460;2024-02-15T12:09:11;101119.34;;;15.60;100.00
58473;BME280;44775;51.564;5.460;2024-02-15T12:11:58;101125.88;;;15.72;100.00
58473;BME280;44775;51.564;5.460;2024-02-15T12:14:42;101117.88;;;15.86;100.00
58473;BME280;44775;51.564;5.460;2024-02-15T12:17:26;101121.56;;;15.78;100.00
58473;BME280;44775;51.564;5.460;2024-02-15T12:20:10;101112.00;;;15.75;100.00
58473;BME280;44775;51.564;5.460;2024-02-15T12:22:40;101110.41;;;15.81;100.00
58473;BME280;44775;51.564;5.460;2024-02-15T12:25:06;101111.50;;;15.87;100.00
58473;BME280;44775;51.564;5.460;2024-02-15T12:27:37;101100.94;;;15.92;100.00
58473;BME280;44775;51.564;5.460;2024-02-15T12:30:02;101103.88;;;15.97;100.00
58473;BME280;44775;51.564;5.460;2024-02-15T12:32:31;101101.38;;;15.95;100.00
58473;BME280;44775;51.564;5.460;2024-02-15T12:35:09;101096.41;;;15.99;100.00
58473;BME280;44775;51.564;5.460;2024-02-15T12:37:37;101094.19;;;16.09;100.00
58473;BME280;44775;51.564;5.460;2024-02-15T12:40:13;101088.19;;;16.07;100.00
58473;BME280;44775;51.564;5.460;2024-02-15T12:42:41;101085.69;;;16.05;100.00
58473;BME280;44775;51.564;5.460;2024-02-15T12:45:06;101084.75;;;16.26;100.00
58473;BME280;44775;51.564;5.460;2024-02-15T12:47:32;101088.44;;;16.19;100.00
58473;BME280;44775;51.564;5.460;2024-02-15T12:49:58;101093.88;;;16.25;100.00